Time;durP1;ratioP1;P1;durP2;ratioP2;P2;SDS_P1;SDS_P2;PMS_P1;PMS_P2;Temp;Humidity;BMP_temperature;BMP_pressure;BME280_temperature;BME280_humidity;BME280_pressure;Samples;Min_cycle;Max_cycle;Signal;HPM_P1;HPM_P2
2022/06/28 00:00:14;;;;;;;12.50;4.40;;;16.10;99.90;;;;;;5096050;28;20023;-75
2022/06/28 00:02:40;;;;;;;8.55;3.90;;;16.10;99.90;;;;;;5091649;28;20023;-74
2022/06/28 00:05:07;;;;;;;8.48;4.05;;;16.10;99.90;;;;;;5095072;28;20020;-75
2022/06/28 00:07:32;;;;;;;11.43;3.80;;;16.10;99.90;;;;;;5089722;28;20071;-75
2022/06/28 00:09:59;;;;;;;10.50;3.97;;;16.10;99.90;;;;;;5088716;28;20031;-75
2022/06/28 00:12:25;;;;;;;9.02;3.88;;;16.10;99.90;;;;;;5085723;28;20036;-76
2022/06/28 00:17:36;;;;;;;4.95;2.95;;;16.10;99.90;;;;;;5091695;28;20123;-75
2022/06/28 00:20:03;;;;;;;12.05;3.65;;;16.20;99.90;;;;;;5098615;28;20061;-74
2022/06/28 00:22:29;;;;;;;8.38;4.30;;;16.20;99.90;;;;;;5097906;28;20028;-75
2022/06/28 00:24:54;;;;;;;16.30;4.15;;;16.20;99.90;;;;;;5100538;28;20031;-75
2022/06/28 00:27:20;;;;;;;8.35;3.50;;;16.20;99.90;;;;;;5083201;28;20040;-74
2022/06/28 00:29:46;;;;;;;10.30;4.30;;;16.20;99.90;;;;;;5082197;28;20103;-74
2022/06/28 00:32:12;;;;;;;14.98;4.72;;;16.20;99.90;;;;;;5093348;28;20028;-74
2022/06/28 00:34:38;;;;;;;9.25;4.47;;;16.10;99.90;;;;;;5100724;28;20499;-75
2022/06/28 00:37:04;;;;;;;7.55;3.95;;;16.20;99.90;;;;;;5099970;28;20020;-75
2022/06/28 00:39:29;;;;;;;9.77;4.22;;;16.20;99.90;;;;;;5084816;28;20048;-75
2022/06/28 00:41:55;;;;;;;14.02;4.40;;;16.10;99.90;;;;;;5097472;28;20031;-75
2022/06/28 00:44:22;;;;;;;9.48;4.80;;;16.20;99.90;;;;;;5099356;28;20031;-75
2022/06/28 00:46:49;;;;;;;13.80;4.65;;;16.20;99.90;;;;;;5096694;28;20024;-75
2022/06/28 00:49:15;;;;;;;9.68;4.00;;;16.10;99.90;;;;;;5089799;28;20017;-75
2022/06/28 00:51:41;;;;;;;6.80;4.15;;;16.10;99.90;;;;;;5086500;28;20060;-75
2022/06/28 00:54:07;;;;;;;14.07;5.47;;;16.10;99.90;;;;;;5083284;28;20066;-74
2022/06/28 00:56:33;;;;;;;7.30;4.78;;;16.10;99.90;;;;;;5087474;28;20419;-74
2022/06/28 00:59:00;;;;;;;15.95;4.20;;;16.10;99.90;;;;;;5084373;28;20555;-74
2022/06/28 01:01:26;;;;;;;8.07;4.40;;;16.10;99.90;;;;;;5089354;28;20838;-75
2022/06/28 01:03:54;;;;;;;6.63;4.28;;;16.10;99.90;;;;;;5089971;28;20063;-76
2022/06/28 01:06:21;;;;;;;11.02;5.32;;;16.10;99.90;;;;;;5096852;28;20032;-76
2022/06/28 01:08:47;;;;;;;10.30;4.38;;;16.10;99.90;;;;;;5094056;28;20400;-75
2022/06/28 01:11:20;;;;;;;8.95;4.88;;;16.10;99.90;;;;;;5093988;28;20535;-75
2022/06/28 01:14:01;;;;;;;10.63;4.30;;;16.10;99.90;;;;;;5095318;28;20027;-75
2022/06/28 01:16:28;;;;;;;7.40;4.32;;;16.10;99.90;;;;;;5090353;28;20031;-74
2022/06/28 01:18:54;;;;;;;15.88;4.70;;;16.00;99.90;;;;;;5097898;28;20027;-75
2022/06/28 01:21:23;;;;;;;11.45;5.03;;;16.00;99.90;;;;;;5079633;28;20024;-74
2022/06/28 01:23:49;;;;;;;14.50;4.85;;;16.00;99.90;;;;;;5080251;28;20071;-75
2022/06/28 01:26:19;;;;;;;10.20;5.10;;;16.00;99.90;;;;;;5081993;28;20025;-75
2022/06/28 01:28:46;;;;;;;7.35;4.03;;;16.00;99.90;;;;;;5081993;28;20439;-75
2022/06/28 01:31:12;;;;;;;9.27;4.03;;;16.00;99.90;;;;;;5084171;28;20430;-75
2022/06/28 01:33:39;;;;;;;10.07;4.80;;;16.10;99.90;;;;;;5084405;28;20033;-75
2022/06/28 01:36:07;;;;;;;7.43;4.18;;;16.00;99.90;;;;;;5088702;28;20084;-75
2022/06/28 01:38:34;;;;;;;13.23;5.15;;;16.10;99.90;;;;;;5087518;28;20137;-75
2022/06/28 01:41:01;;;;;;;10.15;4.70;;;16.00;99.90;;;;;;5098514;28;20094;-75
2022/06/28 01:43:27;;;;;;;12.95;4.90;;;16.00;99.90;;;;;;5091705;28;20504;-75
2022/06/28 01:45:54;;;;;;;8.25;4.78;;;16.00;99.90;;;;;;5096416;28;20031;-74
2022/06/28 01:48:20;;;;;;;10.95;4.03;;;16.00;99.90;;;;;;5094704;28;20028;-75
2022/06/28 01:50:47;;;;;;;10.50;4.18;;;16.00;99.90;;;;;;5098725;28;20048;-74
2022/06/28 01:53:14;;;;;;;10.35;4.75;;;16.00;99.90;;;;;;5083443;28;20016;-74
2022/06/28 01:55:41;;;;;;;7.32;3.90;;;16.00;99.90;;;;;;5080487;28;20025;-75
2022/06/28 01:58:08;;;;;;;11.55;4.80;;;16.00;99.90;;;;;;5083852;28;20017;-75
2022/06/28 02:00:34;;;;;;;9.75;4.47;;;16.00;99.90;;;;;;5082183;28;20020;-75
2022/06/28 02:03:00;;;;;;;11.32;5.10;;;15.90;99.90;;;;;;5085592;28;20223;-75
2022/06/28 02:05:26;;;;;;;8.90;4.45;;;16.00;99.90;;;;;;5085528;28;20519;-74
2022/06/28 02:07:52;;;;;;;10.77;4.95;;;15.90;99.90;;;;;;5087174;28;20115;-75
2022/06/28 02:10:19;;;;;;;10.50;4.85;;;15.90;99.90;;;;;;5089432;28;20028;-75
2022/06/28 02:12:45;;;;;;;14.45;4.35;;;15.90;99.90;;;;;;5090823;28;20032;-75
2022/06/28 02:15:12;;;;;;;15.50;4.68;;;15.90;99.90;;;;;;5092923;28;20070;-75
2022/06/28 02:17:38;;;;;;;10.63;5.90;;;15.90;99.90;;;;;;5092823;28;20028;-74
2022/06/28 02:20:04;;;;;;;8.45;3.95;;;15.90;99.90;;;;;;5095825;28;20086;-75
2022/06/28 02:22:30;;;;;;;13.40;5.90;;;15.90;99.90;;;;;;5093372;28;20032;-75
2022/06/28 02:24:56;;;;;;;13.32;4.78;;;15.80;99.90;;;;;;5097671;28;20023;-74
2022/06/28 02:27:22;;;;;;;7.57;4.35;;;15.80;99.90;;;;;;5094535;28;20448;-74
2022/06/28 02:29:48;;;;;;;13.88;4.38;;;15.80;99.90;;;;;;5079343;28;20013;-75
2022/06/28 02:32:14;;;;;;;8.25;4.18;;;15.80;99.90;;;;;;5080031;28;20387;-75
2022/06/28 02:40:21;;;;;;;10.00;3.95;;;15.80;99.90;;;;;;5089577;28;20023;-75
2022/06/28 02:42:59;;;;;;;7.85;4.13;;;15.80;99.90;;;;;;5093296;28;20024;-75
2022/06/28 02:45:28;;;;;;;13.57;5.15;;;15.80;99.90;;;;;;5093864;28;20087;-75
2022/06/28 02:47:55;;;;;;;10.25;5.43;;;15.80;99.90;;;;;;5095989;28;20020;-75
2022/06/28 02:50:21;;;;;;;11.82;4.93;;;15.80;99.90;;;;;;5096662;28;20043;-75
2022/06/28 02:52:47;;;;;;;11.88;4.25;;;15.80;99.90;;;;;;5098057;28;20028;-75
2022/06/28 02:55:13;;;;;;;11.50;4.53;;;15.70;99.90;;;;;;5084893;28;20024;-74
2022/06/28 02:57:40;;;;;;;7.22;4.57;;;15.70;99.90;;;;;;5097946;28;20027;-75
2022/06/28 03:00:10;;;;;;;7.93;5.05;;;15.70;99.90;;;;;;5093814;28;20445;-74
2022/06/28 03:02:37;;;;;;;10.37;4.80;;;15.70;99.90;;;;;;5084658;28;20025;-76
2022/06/28 03:05:08;;;;;;;16.05;4.38;;;15.70;99.90;;;;;;5091712;28;20025;-75
2022/06/28 03:07:34;;;;;;;14.02;4.40;;;15.70;99.90;;;;;;5079452;28;20056;-75
2022/06/28 03:10:00;;;;;;;6.32;3.75;;;15.60;99.90;;;;;;5083024;28;20031;-74
2022/06/28 03:12:26;;;;;;;11.43;5.05;;;15.60;99.90;;;;;;5091917;28;20020;-75
2022/06/28 03:14:52;;;;;;;9.35;4.45;;;15.70;99.90;;;;;;5088078;28;20052;-75
2022/06/28 03:17:18;;;;;;;7.95;4.40;;;15.60;99.90;;;;;;5089974;28;20039;-75
2022/06/28 03:19:44;;;;;;;11.95;4.68;;;15.60;99.90;;;;;;5091092;28;20425;-74
2022/06/28 03:22:10;;;;;;;10.35;4.25;;;15.60;99.90;;;;;;5086444;28;20038;-74
2022/06/28 03:24:36;;;;;;;10.32;4.70;;;15.60;99.90;;;;;;5091595;28;20035;-74
2022/06/28 03:27:01;;;;;;;8.32;4.45;;;15.60;99.90;;;;;;5090233;28;20017;-74
2022/06/28 03:29:27;;;;;;;7.70;4.50;;;15.60;99.90;;;;;;5096948;28;20032;-74
2022/06/28 03:31:53;;;;;;;10.05;4.72;;;15.60;99.90;;;;;;5095269;28;20034;-74
2022/06/28 03:34:21;;;;;;;9.80;4.90;;;15.60;99.90;;;;;;5089880;28;20021;-74
2022/06/28 03:36:47;;;;;;;12.10;5.28;;;15.60;99.90;;;;;;5111204;28;20027;-75
2022/06/28 03:39:14;;;;;;;8.35;4.68;;;15.60;99.90;;;;;;5079203;28;20020;-75
2022/06/28 03:41:40;;;;;;;12.75;4.70;;;15.60;99.90;;;;;;5080488;28;20017;-75
2022/06/28 03:44:06;;;;;;;8.25;3.78;;;15.50;99.90;;;;;;5081218;28;20027;-74
2022/06/28 03:46:32;;;;;;;7.28;3.65;;;15.50;99.90;;;;;;5082148;28;20020;-74
2022/06/28 03:48:57;;;;;;;10.48;4.65;;;15.50;99.90;;;;;;5086445;28;20103;-75
2022/06/28 03:51:23;;;;;;;11.25;5.15;;;15.50;99.90;;;;;;5084284;28;20124;-75
2022/06/28 03:53:49;;;;;;;11.07;4.18;;;15.50;99.90;;;;;;5090630;28;20042;-74
2022/06/28 03:56:15;;;;;;;10.35;4.25;;;15.50;99.90;;;;;;5086422;28;20576;-74
2022/06/28 03:58:41;;;;;;;13.57;4.28;;;15.50;99.90;;;;;;5092674;28;20107;-75
2022/06/28 04:01:07;;;;;;;10.27;3.80;;;15.40;99.90;;;;;;5088159;28;20052;-75
2022/06/28 04:03:34;;;;;;;7.45;4.57;;;15.50;99.90;;;;;;5096065;28;20017;-75
2022/06/28 04:06:00;;;;;;;8.77;4.43;;;15.50;99.90;;;;;;5095160;28;20024;-75
2022/06/28 04:08:26;;;;;;;7.68;4.40;;;15.50;99.90;;;;;;5077824;28;20031;-75
2022/06/28 04:13:38;;;;;;;6.90;3.53;;;15.50;99.90;;;;;;5079998;28;20438;-75
2022/06/28 04:16:04;;;;;;;14.95;4.32;;;15.50;99.90;;;;;;5090528;28;20093;-74
2022/06/28 04:18:30;;;;;;;12.93;4.28;;;15.50;99.90;;;;;;5080873;28;20028;-75
2022/06/28 04:20:56;;;;;;;5.18;3.80;;;15.50;99.90;;;;;;5086528;28;20022;-74
2022/06/28 04:23:22;;;;;;;11.35;4.45;;;15.40;99.90;;;;;;5085021;28;20017;-74
2022/06/28 04:25:48;;;;;;;12.50;4.30;;;15.40;99.90;;;;;;5087347;28;20020;-74
2022/06/28 04:28:14;;;;;;;10.52;3.97;;;15.40;99.90;;;;;;5089101;28;20078;-76
2022/06/28 04:30:40;;;;;;;9.45;4.05;;;15.40;99.90;;;;;;5088976;28;20038;-74
2022/06/28 04:33:06;;;;;;;12.70;4.28;;;15.40;99.90;;;;;;5093119;28;20035;-74
2022/06/28 04:35:32;;;;;;;8.05;3.65;;;15.40;99.90;;;;;;5092743;28;20020;-74
2022/06/28 04:37:58;;;;;;;6.03;3.47;;;15.40;99.90;;;;;;5096704;28;20031;-75
2022/06/28 04:40:24;;;;;;;10.20;3.88;;;15.40;99.90;;;;;;5092870;28;20020;-74
2022/06/28 04:42:50;;;;;;;9.73;4.35;;;15.40;99.90;;;;;;5085811;28;20400;-76
2022/06/28 04:45:16;;;;;;;9.82;4.10;;;15.40;99.90;;;;;;5091711;28;20024;-75
2022/06/28 04:47:42;;;;;;;9.55;4.20;;;15.40;99.90;;;;;;5079246;28;20029;-74
2022/06/28 04:50:08;;;;;;;11.05;4.32;;;15.40;99.90;;;;;;5083269;28;20080;-75
2022/06/28 04:52:36;;;;;;;7.05;4.07;;;15.40;99.90;;;;;;5086667;28;20024;-75
2022/06/28 04:55:02;;;;;;;9.05;4.07;;;15.40;99.90;;;;;;5088041;28;20455;-75
2022/06/28 04:57:28;;;;;;;10.43;4.45;;;15.50;99.90;;;;;;5084666;28;20032;-74
2022/06/28 04:59:55;;;;;;;18.80;4.65;;;15.50;99.90;;;;;;5087392;28;20020;-75
2022/06/28 05:02:21;;;;;;;8.40;4.50;;;15.50;99.90;;;;;;5088298;28;20031;-74
2022/06/28 05:04:47;;;;;;;8.82;3.33;;;15.50;99.90;;;;;;5091307;28;20502;-75
2022/06/28 05:07:13;;;;;;;7.65;4.15;;;15.50;99.90;;;;;;5096348;28;20352;-75
2022/06/28 05:09:40;;;;;;;12.55;4.18;;;15.50;99.90;;;;;;5097217;28;20438;-74
2022/06/28 05:12:06;;;;;;;11.85;4.25;;;15.50;99.90;;;;;;5097878;28;20513;-74
2022/06/28 05:14:33;;;;;;;10.32;4.60;;;15.50;99.90;;;;;;5095142;28;20103;-74
2022/06/28 05:16:59;;;;;;;11.80;4.50;;;15.60;99.90;;;;;;5087639;28;20028;-74
2022/06/28 05:19:25;;;;;;;10.00;4.07;;;15.50;99.90;;;;;;5083527;28;20058;-74
2022/06/28 05:21:51;;;;;;;13.55;4.10;;;15.50;99.90;;;;;;5082726;28;20032;-75
2022/06/28 05:24:17;;;;;;;5.60;3.33;;;15.50;99.90;;;;;;5087767;28;20020;-75
2022/06/28 05:26:43;;;;;;;7.75;4.00;;;15.50;99.90;;;;;;5084784;28;20552;-73
2022/06/28 05:29:09;;;;;;;18.90;4.93;;;15.50;99.90;;;;;;5088584;28;20030;-74
2022/06/28 05:31:35;;;;;;;8.07;4.00;;;15.50;99.90;;;;;;5087578;28;20078;-74
2022/06/28 05:34:02;;;;;;;9.80;3.72;;;15.50;99.90;;;;;;5091301;28;20016;-74
2022/06/28 05:36:29;;;;;;;16.27;4.22;;;15.60;99.90;;;;;;5091775;28;20779;-75
2022/06/28 05:38:55;;;;;;;8.77;4.15;;;15.70;99.90;;;;;;5093648;28;20012;-75
2022/06/28 05:41:21;;;;;;;12.88;4.20;;;15.80;99.90;;;;;;5095217;28;20446;-74
2022/06/28 05:43:47;;;;;;;8.93;4.05;;;15.80;99.90;;;;;;5095484;28;20016;-75
2022/06/28 05:46:13;;;;;;;8.60;4.03;;;15.90;99.90;;;;;;5097183;28;20035;-75
2022/06/28 05:48:39;;;;;;;11.38;4.55;;;15.90;99.90;;;;;;5081805;28;20091;-75
2022/06/28 05:51:04;;;;;;;7.40;3.67;;;16.00;99.90;;;;;;5080452;28;20053;-75
2022/06/28 05:53:30;;;;;;;9.05;3.85;;;16.10;99.90;;;;;;5082338;28;20035;-75
2022/06/28 05:55:56;;;;;;;12.60;4.20;;;16.20;99.90;;;;;;5094855;28;20031;-74
2022/06/28 05:58:22;;;;;;;10.15;3.70;;;16.30;99.90;;;;;;5096815;28;20020;-75
2022/06/28 06:00:49;;;;;;;7.85;3.75;;;16.30;99.90;;;;;;5096380;28;20023;-75
2022/06/28 06:03:15;;;;;;;11.50;4.13;;;16.40;99.90;;;;;;5099010;28;20008;-75
2022/06/28 06:05:42;;;;;;;9.05;4.25;;;16.50;99.90;;;;;;5094330;28;20081;-75
2022/06/28 06:08:08;;;;;;;9.38;3.47;;;16.60;99.90;;;;;;5095962;28;20019;-75
2022/06/28 06:10:34;;;;;;;6.68;4.05;;;16.60;99.90;;;;;;5084816;28;20028;-75
2022/06/28 06:13:01;;;;;;;10.98;3.85;;;16.60;99.90;;;;;;5090433;28;20024;-75
2022/06/28 06:15:27;;;;;;;7.38;3.40;;;16.70;99.90;;;;;;5087447;28;20024;-75
2022/06/28 06:17:53;;;;;;;8.77;3.65;;;16.80;99.90;;;;;;5097162;28;20028;-76
2022/06/28 06:20:19;;;;;;;7.35;2.88;;;16.80;99.90;;;;;;5091425;28;20134;-75
2022/06/28 06:22:47;;;;;;;9.48;3.17;;;16.80;99.90;;;;;;5095084;28;20059;-75
2022/06/28 06:25:13;;;;;;;7.40;3.08;;;16.80;99.90;;;;;;5096370;28;20448;-75
2022/06/28 06:27:39;;;;;;;8.43;3.50;;;16.80;99.90;;;;;;5096810;28;20055;-75
2022/06/28 06:30:06;;;;;;;7.32;3.08;;;16.90;99.90;;;;;;5084314;28;20024;-75
2022/06/28 06:32:33;;;;;;;11.45;3.67;;;16.90;99.90;;;;;;5080011;28;20496;-75
2022/06/28 06:34:59;;;;;;;6.40;2.88;;;17.00;99.90;;;;;;5089053;28;20060;-75
2022/06/28 06:37:25;;;;;;;6.57;2.97;;;17.10;99.90;;;;;;5089991;28;20020;-75
2022/06/28 06:39:50;;;;;;;9.77;3.03;;;17.20;99.90;;;;;;5097367;28;20077;-75
2022/06/28 06:42:16;;;;;;;7.30;2.95;;;17.30;99.90;;;;;;5095720;28;20016;-75
2022/06/28 06:44:42;;;;;;;8.65;3.55;;;17.40;99.90;;;;;;5083320;28;20494;-75
2022/06/28 06:47:08;;;;;;;15.02;3.85;;;17.40;99.90;;;;;;5096641;28;20020;-76
2022/06/28 06:49:34;;;;;;;8.95;3.85;;;17.50;99.90;;;;;;5097522;28;20071;-75
2022/06/28 06:52:00;;;;;;;7.43;2.42;;;17.50;99.90;;;;;;5079583;28;20497;-73
2022/06/28 06:54:26;;;;;;;8.18;3.00;;;17.60;99.90;;;;;;5090359;28;20055;-73
2022/06/28 06:56:52;;;;;;;9.07;2.90;;;17.60;99.90;;;;;;5083942;28;20105;-73
2022/06/28 06:59:17;;;;;;;7.90;3.75;;;17.60;99.90;;;;;;5080127;28;20024;-74
2022/06/28 07:01:44;;;;;;;7.70;2.90;;;17.60;99.90;;;;;;5085581;28;20027;-73
2022/06/28 07:04:10;;;;;;;7.82;2.70;;;17.60;99.90;;;;;;5083616;28;20020;-73
2022/06/28 07:06:36;;;;;;;4.78;2.00;;;17.70;99.90;;;;;;5090271;28;20020;-74
2022/06/28 07:09:03;;;;;;;7.10;2.92;;;17.80;99.90;;;;;;5086344;28;20107;-73
2022/06/28 07:11:29;;;;;;;7.55;2.58;;;17.80;99.90;;;;;;5096904;28;20050;-74
2022/06/28 07:13:55;;;;;;;5.78;2.63;;;17.90;99.90;;;;;;5089655;28;20028;-74
2022/06/28 07:16:21;;;;;;;10.55;2.63;;;18.00;99.90;;;;;;5093002;28;20115;-74
2022/06/28 07:18:47;;;;;;;7.47;3.00;;;18.00;99.90;;;;;;5093426;28;20107;-73
2022/06/28 07:21:13;;;;;;;8.90;2.55;;;18.00;99.90;;;;;;5096135;28;20012;-74
2022/06/28 07:23:40;;;;;;;7.82;2.38;;;18.10;99.90;;;;;;5097563;28;20035;-74
2022/06/28 07:26:06;;;;;;;3.65;1.80;;;18.10;99.90;;;;;;5078086;28;20020;-73
2022/06/28 07:28:32;;;;;;;9.77;2.33;;;18.20;99.90;;;;;;5077480;28;20052;-74
2022/06/28 07:30:58;;;;;;;9.63;2.85;;;18.40;99.90;;;;;;5082915;28;20025;-73
2022/06/28 07:33:23;;;;;;;9.75;2.28;;;18.40;99.90;;;;;;5080958;28;20032;-73
2022/06/28 07:35:49;;;;;;;10.30;2.35;;;18.40;99.90;;;;;;5086683;28;20024;-72
2022/06/28 07:38:15;;;;;;;5.13;2.15;;;18.50;99.90;;;;;;5081830;28;20020;-73
2022/06/28 07:40:41;;;;;;;9.32;2.30;;;18.70;99.90;;;;;;5088570;28;20410;-73
2022/06/28 07:43:07;;;;;;;5.38;1.35;;;18.70;99.90;;;;;;5084483;28;20107;-74
2022/06/28 07:45:36;;;;;;;6.40;2.20;;;18.70;99.90;;;;;;5095245;28;20024;-74
2022/06/28 07:48:03;;;;;;;5.43;1.92;;;18.70;99.90;;;;;;5091163;28;20365;-74
2022/06/28 07:53:14;;;;;;;6.82;1.80;;;18.50;99.90;;;;;;5095284;28;20035;-75
2022/06/28 07:55:39;;;;;;;6.00;2.25;;;18.60;99.90;;;;;;5094682;28;20024;-73
2022/06/28 07:58:06;;;;;;;7.10;2.22;;;18.50;99.90;;;;;;5096986;28;20020;-75
2022/06/28 08:00:31;;;;;;;8.02;2.10;;;18.60;99.90;;;;;;5092962;28;20560;-74
2022/06/28 08:02:57;;;;;;;3.70;1.70;;;18.70;99.90;;;;;;5090034;28;20044;-75
2022/06/28 08:05:24;;;;;;;12.20;4.25;;;18.70;99.90;;;;;;5092334;28;20030;-74
2022/06/28 08:07:49;;;;;;;65.35;27.20;;;18.60;99.90;;;;;;5085016;28;20024;-74
2022/06/28 08:10:16;;;;;;;18.83;6.20;;;18.70;99.90;;;;;;5085548;28;20038;-74
2022/06/28 08:12:42;;;;;;;16.83;5.78;;;18.70;99.90;;;;;;5092575;28;20036;-74
2022/06/28 08:15:10;;;;;;;8.85;3.53;;;18.70;99.90;;;;;;5091060;28;20434;-74
2022/06/28 08:17:36;;;;;;;7.97;3.25;;;18.80;99.90;;;;;;5089757;28;20068;-73
2022/06/28 08:20:02;;;;;;;6.07;1.90;;;18.90;99.90;;;;;;5093912;28;21412;-76
2022/06/28 08:22:28;;;;;;;4.88;1.88;;;19.00;99.90;;;;;;5092727;28;20024;-75
2022/06/28 08:24:54;;;;;;;5.38;2.20;;;19.10;99.90;;;;;;5096133;28;20016;-72
2022/06/28 08:27:20;;;;;;;5.20;2.13;;;19.10;99.90;;;;;;5093456;28;20039;-73
2022/06/28 08:29:47;;;;;;;8.85;1.92;;;19.10;99.90;;;;;;5083745;28;20020;-74
2022/06/28 08:32:13;;;;;;;7.32;2.08;;;19.20;99.90;;;;;;5096497;28;20438;-72
2022/06/28 08:34:39;;;;;;;5.88;1.67;;;19.30;99.90;;;;;;5094647;28;20021;-76
2022/06/28 08:37:06;;;;;;;6.65;2.55;;;19.30;99.90;;;;;;5086462;28;20035;-73
2022/06/28 08:39:32;;;;;;;3.30;1.70;;;19.30;99.90;;;;;;5090169;28;20028;-75
2022/06/28 08:42:03;;;;;;;5.95;2.17;;;19.40;99.90;;;;;;5098158;28;20137;-75
2022/06/28 08:44:35;;;;;;;7.90;1.75;;;19.40;99.90;;;;;;5089070;28;20024;-75
2022/06/28 08:47:02;;;;;;;6.82;2.42;;;19.40;99.90;;;;;;5084402;28;20128;-73
2022/06/28 08:49:34;;;;;;;6.15;1.80;;;19.50;99.90;;;;;;5090176;28;20052;-74
2022/06/28 08:52:02;;;;;;;12.00;2.70;;;19.60;99.90;;;;;;5084049;28;20024;-73
2022/06/28 08:54:28;;;;;;;11.60;1.90;;;19.70;99.90;;;;;;5084875;28;20092;-75
2022/06/28 08:56:54;;;;;;;6.68;2.20;;;19.70;99.90;;;;;;5090699;28;20384;-74
2022/06/28 08:59:22;;;;;;;11.50;2.35;;;19.70;99.90;;;;;;5086938;28;20025;-75
2022/06/28 09:01:49;;;;;;;6.40;1.65;;;19.80;99.90;;;;;;5093874;28;20024;-76
2022/06/28 09:04:15;;;;;;;11.50;1.92;;;19.80;99.90;;;;;;5092428;28;20095;-75
2022/06/28 09:06:41;;;;;;;9.27;2.38;;;19.90;99.90;;;;;;5095208;28;20056;-75
2022/06/28 09:09:07;;;;;;;9.60;2.33;;;20.00;99.90;;;;;;5094001;28;20016;-75
2022/06/28 09:11:42;;;;;;;8.52;2.30;;;20.10;99.90;;;;;;5096904;28;20028;-73
2022/06/28 09:14:25;;;;;;;8.18;1.90;;;20.30;99.90;;;;;;5098013;28;20059;-76
2022/06/28 09:16:51;;;;;;;5.75;2.47;;;20.40;99.90;;;;;;5088696;28;20028;-73
2022/06/28 09:19:31;;;;;;;4.63;2.00;;;20.40;99.90;;;;;;5081490;28;20048;-74
2022/06/28 09:21:57;;;;;;;6.07;1.98;;;20.50;99.90;;;;;;5081891;28;20020;-73
2022/06/28 09:24:25;;;;;;;4.40;2.15;;;20.50;99.90;;;;;;5085952;28;20028;-73
2022/06/28 09:27:04;;;;;;;9.40;2.47;;;20.50;99.90;;;;;;5083759;28;20024;-73
2022/06/28 09:29:44;;;;;;;9.98;2.50;;;20.70;99.90;;;;;;5084712;28;20023;-75
2022/06/28 09:32:10;;;;;;;11.13;1.92;;;20.90;99.90;;;;;;5087782;28;20020;-73
2022/06/28 09:34:40;;;;;;;5.55;1.92;;;20.80;99.90;;;;;;5089486;28;20503;-75
2022/06/28 09:37:06;;;;;;;6.25;1.77;;;20.80;99.90;;;;;;5090075;28;20016;-75
2022/06/28 09:39:31;;;;;;;9.50;1.70;;;20.90;99.90;;;;;;5097673;28;20028;-75
2022/06/28 09:41:59;;;;;;;11.90;2.30;;;21.00;99.90;;;;;;5093364;28;20016;-75
2022/06/28 09:44:27;;;;;;;5.45;1.80;;;21.00;99.90;;;;;;5096785;28;20027;-73
2022/06/28 09:46:54;;;;;;;3.28;1.38;;;21.10;99.90;;;;;;5095850;28;20050;-74
2022/06/28 09:49:27;;;;;;;5.22;2.25;;;21.20;99.90;;;;;;5097129;28;20116;-73
2022/06/28 09:51:55;;;;;;;6.20;1.63;;;21.10;99.90;;;;;;5094037;28;20009;-74
2022/06/28 09:54:25;;;;;;;15.30;1.80;;;21.20;99.90;;;;;;5080217;28;20028;-75
2022/06/28 09:56:54;;;;;;;;;;;21.20;99.90;;;;;;5083671;28;20020;-74
2022/06/28 09:59:22;;;;;;;10.52;1.92;;;21.30;99.90;;;;;;5080792;28;19912;-75
2022/06/28 10:01:49;;;;;;;16.27;2.35;;;21.40;99.90;;;;;;5097091;28;20012;-72
2022/06/28 10:04:18;;;;;;;6.13;1.45;;;21.50;99.90;;;;;;5095427;28;20012;-74
2022/06/28 10:06:44;;;;;;;5.25;1.40;;;21.60;99.90;;;;;;5094065;28;20054;-72
2022/06/28 10:09:10;;;;;;;7.63;1.95;;;21.60;99.90;;;;;;5094146;28;20101;-73
2022/06/28 10:17:28;;;;;;;5.45;1.73;;;22.40;99.90;;;;;;5098070;28;20384;-74
2022/06/28 10:19:59;;;;;;;2.65;1.55;;;22.50;99.90;;;;;;5089903;28;20048;-75
2022/06/28 10:22:25;;;;;;;6.40;1.77;;;22.40;99.90;;;;;;5090497;28;20399;-73
2022/06/28 10:25:00;;;;;;;5.65;1.67;;;22.30;99.90;;;;;;5093043;28;20056;-73
2022/06/28 10:27:27;;;;;;;5.90;1.50;;;22.30;99.90;;;;;;5093295;28;20031;-74
2022/06/28 10:30:07;;;;;;;4.47;1.50;;;22.60;99.90;;;;;;5094427;28;20038;-74
2022/06/28 10:32:45;;;;;;;4.47;1.38;;;22.80;99.90;;;;;;5095790;28;20020;-73
2022/06/28 10:35:31;;;;;;;6.38;1.52;;;23.00;99.90;;;;;;5096987;28;20032;-73
2022/06/28 10:38:09;;;;;;;6.13;1.30;;;23.10;99.90;;;;;;5079561;28;20409;-73
2022/06/28 10:40:50;;;;;;;3.67;1.42;;;23.20;99.90;;;;;;5082273;28;20082;-76
2022/06/28 10:43:35;;;;;;;;;;;23.10;99.90;;;;;;5082574;28;20027;-76
2022/06/28 10:46:02;;;;;;;4.43;1.40;;;22.80;99.90;;;;;;5081917;28;19904;-73
2022/06/28 10:48:29;;;;;;;3.20;1.52;;;22.80;99.90;;;;;;5086799;28;20480;-74
2022/06/28 10:51:03;;;;;;;6.63;1.92;;;22.70;99.90;;;;;;5085840;28;20051;-74
2022/06/28 10:53:50;;;;;;;4.40;1.42;;;22.70;99.90;;;;;;5089652;28;20791;-74
2022/06/28 10:56:17;;;;;;;3.13;1.65;;;22.70;99.90;;;;;;5085186;28;20020;-74
2022/06/28 10:59:05;;;;;;;3.17;1.35;;;22.80;99.90;;;;;;5092155;28;20024;-74
2022/06/28 11:01:42;;;;;;;2.58;1.20;;;23.10;99.90;;;;;;5091989;28;20097;-75
2022/06/28 11:04:21;;;;;;;6.00;1.33;;;23.30;99.90;;;;;;5093949;28;20020;-75
2022/06/28 11:06:54;;;;;;;6.43;1.73;;;23.10;98.90;;;;;;5085647;28;20024;-74
2022/06/28 11:09:38;;;;;;;3.80;1.73;;;23.20;99.90;;;;;;5096333;28;20427;-74
2022/06/28 11:12:04;;;;;;;7.85;1.85;;;23.30;99.90;;;;;;5079611;28;20024;-74
2022/06/28 11:14:32;;;;;;;7.85;1.45;;;23.40;99.70;;;;;;5082049;28;20024;-74
2022/06/28 11:16:59;;;;;;;5.07;1.38;;;23.60;99.90;;;;;;5087963;28;20008;-73
2022/06/28 11:19:25;;;;;;;4.18;1.83;;;23.80;99.90;;;;;;5087817;28;20059;-75
2022/06/28 11:21:55;;;;;;;3.53;1.20;;;23.80;99.90;;;;;;5083765;28;20073;-74
2022/06/28 11:24:24;;;;;;;4.88;1.40;;;23.70;95.60;;;;;;5090456;28;20066;-74
2022/06/28 11:29:34;;;;;;;5.70;1.50;;;23.80;96.90;;;;;;5086373;28;20083;-73
2022/06/28 11:32:00;;;;;;;2.38;1.02;;;23.70;96.00;;;;;;5090268;28;20040;-75
2022/06/28 11:34:26;;;;;;;5.13;1.67;;;23.70;96.40;;;;;;5094868;28;20028;-75
2022/06/28 11:36:56;;;;;;;5.60;1.75;;;23.70;96.10;;;;;;5092911;28;20180;-74
2022/06/28 11:39:23;;;;;;;2.20;0.90;;;23.80;97.10;;;;;;5096780;28;20020;-74
2022/06/28 11:41:51;;;;;;;2.58;1.20;;;23.80;93.30;;;;;;5096454;28;20017;-73
2022/06/28 11:44:18;;;;;;;2.72;1.17;;;23.90;94.60;;;;;;5087130;28;20032;-74
2022/06/28 11:46:45;;;;;;;2.08;1.25;;;23.90;93.10;;;;;;5079095;28;20028;-75
2022/06/28 11:49:11;;;;;;;2.33;1.20;;;23.80;91.90;;;;;;5078440;28;20050;-74
2022/06/28 11:51:40;;;;;;;3.83;1.20;;;23.90;92.70;;;;;;5083444;28;20036;-74
2022/06/28 11:54:08;;;;;;;2.35;1.10;;;23.80;93.80;;;;;;5081903;28;20024;-76
2022/06/28 11:56:47;;;;;;;2.15;1.27;;;23.80;93.70;;;;;;5084679;28;20024;-76
2022/06/28 11:59:15;;;;;;;3.38;1.30;;;23.80;93.10;;;;;;5083582;28;20013;-75
2022/06/28 12:01:42;;;;;;;3.35;1.20;;;23.70;94.20;;;;;;5088166;28;20020;-76
2022/06/28 12:04:09;;;;;;;2.85;1.13;;;23.80;93.30;;;;;;5087235;28;20028;-75
2022/06/28 12:06:39;;;;;;;2.08;1.10;;;23.90;92.20;;;;;;5092210;28;20073;-74
2022/06/28 12:09:06;;;;;;;3.17;1.05;;;24.00;91.70;;;;;;5093446;28;20028;-74
2022/06/28 12:11:53;;;;;;;5.57;1.92;;;24.10;91.10;;;;;;5078081;28;20131;-77
2022/06/28 12:14:31;;;;;;;4.68;1.30;;;24.00;91.10;;;;;;5084864;28;20052;-76
2022/06/28 12:17:00;;;;;;;2.90;1.40;;;24.00;92.00;;;;;;5091420;28;20027;-76
2022/06/28 12:19:28;;;;;;;4.45;1.17;;;24.00;91.30;;;;;;5090682;28;20542;-75
2022/06/28 12:22:01;;;;;;;5.10;1.48;;;24.00;92.10;;;;;;5086698;28;20469;-75
2022/06/28 12:24:43;;;;;;;3.75;1.10;;;24.10;94.40;;;;;;5093585;28;20012;-76
2022/06/28 12:27:21;;;;;;;2.97;1.20;;;24.30;92.30;;;;;;5088964;28;20107;-75
2022/06/28 12:29:48;;;;;;;5.38;1.10;;;24.40;92.50;;;;;;5094339;28;20028;-74
2022/06/28 12:32:15;;;;;;;3.80;1.42;;;24.50;91.90;;;;;;5094295;28;20012;-75
2022/06/28 12:34:41;;;;;;;2.47;1.27;;;24.50;90.80;;;;;;5096565;28;20492;-76
2022/06/28 12:37:08;;;;;;;3.67;1.17;;;24.70;90.80;;;;;;5096774;28;20016;-74
2022/06/28 12:39:34;;;;;;;2.40;1.25;;;24.60;90.60;;;;;;5098341;28;20028;-76
2022/06/28 12:42:00;;;;;;;5.30;1.27;;;24.70;91.10;;;;;;5096017;28;20020;-76
2022/06/28 12:44:26;;;;;;;11.40;1.42;;;24.70;89.50;;;;;;5079639;28;20078;-74
2022/06/28 12:46:52;;;;;;;3.10;1.23;;;24.80;93.10;;;;;;5082791;28;20024;-75
2022/06/28 12:49:19;;;;;;;3.25;1.45;;;24.90;90.40;;;;;;5082654;28;20017;-73
2022/06/28 12:51:45;;;;;;;3.90;1.13;;;25.10;91.00;;;;;;5087060;28;20028;-73
2022/06/28 12:54:11;;;;;;;5.07;1.52;;;25.30;93.40;;;;;;5088470;28;20020;-73
2022/06/28 12:56:37;;;;;;;1.95;1.15;;;25.20;90.50;;;;;;5100393;28;20103;-74
2022/06/28 12:59:03;;;;;;;5.95;1.50;;;25.40;90.40;;;;;;5094885;28;20028;-75
2022/06/28 13:01:29;;;;;;;5.07;1.20;;;25.40;90.40;;;;;;5093108;28;20035;-76
2022/06/28 13:03:55;;;;;;;4.97;1.42;;;25.30;86.80;;;;;;5093763;28;20339;-76
2022/06/28 13:06:21;;;;;;;3.33;1.20;;;25.30;86.90;;;;;;5087737;28;20024;-74